createdAt,value
2022-12-03T00:00:57.060Z,45.03
2022-12-03T00:03:23.861Z,45.63
2022-12-03T00:05:50.827Z,43.37
2022-12-03T00:08:17.617Z,37.97
2022-12-03T00:10:44.440Z,40.20
2022-12-03T00:13:11.147Z,38.67
2022-12-03T00:15:38.032Z,44.07
2022-12-03T00:18:04.981Z,44.23
2022-12-03T00:20:31.718Z,38.80
2022-12-03T00:22:58.463Z,38.43
2022-12-03T00:25:25.199Z,43.50
2022-12-03T00:27:51.953Z,38.63
2022-12-03T00:30:18.810Z,39.73
2022-12-03T00:32:45.676Z,42.03
2022-12-03T00:35:12.518Z,39.43
2022-12-03T00:37:39.199Z,45.23
2022-12-03T00:40:07.987Z,44.67
2022-12-03T00:42:34.822Z,41.57
2022-12-03T00:45:01.531Z,44.33
2022-12-03T00:47:28.304Z,42.23
2022-12-03T00:50:00.358Z,43.93
2022-12-03T00:52:27.072Z,43.17
2022-12-03T00:54:55.142Z,48.23
2022-12-03T00:57:22.038Z,43.80
2022-12-03T00:59:48.736Z,42.47
2022-12-03T01:02:15.574Z,43.97
2022-12-03T01:04:43.440Z,47.60
2022-12-03T01:07:10.351Z,45.40
2022-12-03T01:09:37.083Z,45.43
2022-12-03T01:12:03.910Z,43.60
2022-12-03T01:14:30.971Z,46.97
2022-12-03T01:16:57.710Z,51.87
2022-12-03T01:19:24.966Z,45.23
2022-12-03T01:21:52.462Z,49.60
2022-12-03T01:24:19.651Z,46.03
2022-12-03T01:26:46.610Z,46.97
2022-12-03T01:29:13.855Z,43.93
2022-12-03T01:31:59.244Z,41.60
2022-12-03T01:34:26.059Z,45.87
2022-12-03T01:36:52.952Z,41.47
2022-12-03T01:39:20.202Z,45.40
2022-12-03T01:41:48.356Z,47.43
2022-12-03T01:44:18.911Z,44.23
2022-12-03T01:46:46.782Z,38.50
2022-12-03T01:49:27.418Z,42.90
2022-12-03T01:51:55.531Z,40.37
2022-12-03T01:54:35.797Z,49.37
2022-12-03T01:57:02.799Z,41.33
2022-12-03T01:59:35.572Z,42.07
2022-12-03T02:02:27.318Z,41.90
2022-12-03T02:04:54.849Z,47.77
2022-12-03T02:07:33.558Z,48.37
2022-12-03T02:10:03.812Z,46.17
2022-12-03T02:12:42.081Z,45.30
2022-12-03T02:15:10.373Z,44.90
2022-12-03T02:17:38.080Z,40.83
2022-12-03T02:20:07.960Z,46.00
2022-12-03T02:22:46.320Z,41.10
2022-12-03T02:25:14.212Z,40.97
2022-12-03T02:27:41.699Z,43.50
2022-12-03T02:30:10.321Z,43.30
2022-12-03T02:32:37.554Z,50.30
2022-12-03T02:35:04.916Z,43.73
2022-12-03T02:37:35.977Z,45.57
2022-12-03T02:40:10.236Z,42.37
2022-12-03T02:42:38.628Z,46.13
2022-12-03T02:45:33.773Z,45.87
2022-12-03T02:48:08.721Z,45.53
2022-12-03T02:50:42.394Z,42.00
2022-12-03T02:53:20.026Z,45.10
2022-12-03T02:55:48.422Z,47.83
2022-12-03T02:58:16.805Z,49.50
2022-12-03T03:00:45.731Z,43.27
2022-12-03T03:03:13.214Z,49.70
2022-12-03T03:05:41.495Z,48.17
2022-12-03T03:08:10.114Z,45.73
2022-12-03T03:10:39.066Z,48.00
2022-12-03T03:13:16.807Z,45.17
2022-12-03T03:15:43.813Z,54.63
2022-12-03T03:18:12.519Z,49.67
2022-12-03T03:20:40.370Z,45.90
2022-12-03T03:23:13.328Z,47.33
2022-12-03T03:25:43.684Z,47.03
2022-12-03T03:28:11.182Z,52.50
2022-12-03T03:30:39.657Z,50.07
2022-12-03T03:33:07.029Z,44.40
2022-12-03T03:35:34.149Z,47.20
2022-12-03T03:38:01.010Z,50.63
2022-12-03T03:40:28.179Z,47.83
2022-12-03T03:42:56.018Z,52.73
2022-12-03T03:45:28.885Z,48.20
2022-12-03T03:47:57.986Z,49.27
2022-12-03T03:50:25.576Z,44.97
2022-12-03T03:52:52.747Z,45.97
2022-12-03T03:55:20.452Z,49.37
2022-12-03T03:57:48.999Z,50.03
2022-12-03T04:00:16.091Z,54.93
2022-12-03T04:02:43.737Z,51.53
2022-12-03T04:05:20.005Z,49.33
2022-12-03T04:07:47.470Z,57.30
2022-12-03T04:10:33.727Z,50.23
2022-12-03T04:13:01.296Z,50.97
2022-12-03T04:15:28.298Z,56.83
2022-12-03T04:18:14.212Z,50.93
2022-12-03T04:20:41.129Z,56.67
2022-12-03T04:23:08.706Z,56.00
2022-12-03T04:25:53.896Z,56.87
2022-12-03T04:28:39.510Z,52.80
2022-12-03T04:31:25.285Z,56.37
2022-12-03T04:34:11.415Z,59.47
2022-12-03T04:36:38.635Z,59.83
2022-12-03T04:39:05.371Z,56.87
2022-12-03T04:41:32.108Z,55.00
2022-12-03T04:44:17.768Z,57.83
2022-12-03T04:46:45.550Z,56.80
2022-12-03T04:49:12.251Z,53.13
2022-12-03T04:51:39.090Z,50.77
2022-12-03T04:54:06.121Z,54.90
2022-12-03T04:56:32.949Z,50.83
2022-12-03T04:58:59.708Z,51.40
2022-12-03T05:01:26.487Z,53.73
2022-12-03T05:03:53.264Z,56.97
2022-12-03T05:06:20.009Z,57.23
2022-12-03T05:08:46.768Z,44.07
2022-12-03T05:11:13.642Z,47.97
2022-12-03T05:13:40.361Z,57.50
2022-12-03T05:16:07.389Z,45.70
2022-12-03T05:18:34.101Z,46.90
2022-12-03T05:21:00.846Z,53.37
2022-12-03T05:23:28.173Z,47.40
2022-12-03T05:25:54.975Z,51.23
2022-12-03T05:28:23.208Z,53.27
2022-12-03T05:30:50.928Z,48.17
2022-12-03T05:33:17.962Z,50.03
2022-12-03T05:35:44.868Z,45.30
2022-12-03T05:38:11.667Z,48.23
2022-12-03T05:40:38.610Z,43.50
2022-12-03T05:43:05.426Z,47.27
2022-12-03T05:45:39.860Z,45.63
2022-12-03T05:48:09.739Z,44.00
2022-12-03T05:50:37.747Z,49.70
2022-12-03T05:53:04.781Z,51.17
2022-12-03T05:55:31.897Z,51.10
2022-12-03T05:57:58.748Z,51.87
2022-12-03T06:00:28.569Z,44.20
2022-12-03T06:02:55.694Z,49.00
2022-12-03T06:05:23.762Z,51.63
2022-12-03T06:07:52.270Z,47.47
2022-12-03T06:10:21.997Z,44.17
2022-12-03T06:12:48.709Z,45.67
2022-12-03T06:15:15.659Z,47.33
2022-12-03T06:17:42.449Z,46.83
2022-12-03T06:20:13.542Z,46.03
2022-12-03T06:22:40.483Z,45.83
2022-12-03T06:25:07.683Z,47.70
2022-12-03T06:27:35.413Z,52.67
2022-12-03T06:30:02.836Z,51.50
2022-12-03T06:32:29.800Z,50.23
2022-12-03T06:34:56.678Z,50.27
2022-12-03T06:37:23.464Z,52.17
2022-12-03T06:39:52.758Z,51.70
2022-12-03T06:42:19.425Z,46.00
2022-12-03T06:44:46.074Z,55.60
2022-12-03T06:47:12.771Z,53.60
2022-12-03T06:49:39.476Z,50.87
2022-12-03T06:52:06.348Z,54.60
2022-12-03T06:54:33.080Z,52.63
2022-12-03T06:57:05.988Z,54.37
2022-12-03T06:59:35.590Z,51.50
2022-12-03T07:02:03.823Z,49.03
2022-12-03T07:04:31.056Z,50.70
2022-12-03T07:06:59.067Z,57.10
2022-12-03T07:09:25.974Z,52.73
2022-12-03T07:11:53.016Z,54.10
2022-12-03T07:14:20.025Z,57.93
2022-12-03T07:16:47.593Z,58.50
2022-12-03T07:19:14.804Z,57.03
2022-12-03T07:21:41.677Z,60.33
2022-12-03T07:24:08.552Z,61.03
2022-12-03T07:26:35.241Z,56.03
2022-12-03T07:29:02.011Z,56.47
2022-12-03T07:31:28.922Z,54.80
2022-12-03T07:33:55.625Z,56.57
2022-12-03T07:36:22.343Z,58.90
2022-12-03T07:38:49.305Z,57.97
2022-12-03T07:41:15.964Z,58.17
2022-12-03T07:43:42.763Z,52.70
2022-12-03T07:46:09.614Z,61.63
2022-12-03T07:48:36.379Z,56.60
2022-12-03T07:51:05.958Z,57.17
2022-12-03T07:53:32.775Z,61.70
2022-12-03T07:55:59.498Z,52.30
2022-12-03T07:58:26.192Z,54.33
2022-12-03T08:00:53.036Z,57.17
2022-12-03T08:03:19.793Z,58.93
2022-12-03T08:05:46.511Z,57.67
2022-12-03T08:08:13.381Z,60.37
2022-12-03T08:10:40.221Z,54.87
2022-12-03T08:13:15.671Z,58.07
2022-12-03T08:15:43.125Z,56.40
2022-12-03T08:18:16.397Z,66.13
2022-12-03T08:20:45.100Z,59.43
2022-12-03T08:23:29.923Z,54.37
2022-12-03T08:26:02.019Z,56.63
2022-12-03T08:28:28.753Z,61.67
2022-12-03T08:31:03.319Z,62.70
2022-12-03T08:33:35.930Z,66.97
2022-12-03T08:36:21.482Z,61.43
2022-12-03T08:38:55.042Z,61.57
2022-12-03T08:41:41.924Z,62.33
2022-12-03T08:44:28.298Z,72.23
2022-12-03T08:47:10.019Z,60.23
2022-12-03T08:49:37.528Z,61.17
2022-12-03T08:52:15.919Z,66.27
2022-12-03T08:54:47.646Z,71.87
2022-12-03T08:57:34.419Z,63.17
2022-12-03T09:00:22.542Z,59.97
2022-12-03T09:02:55.287Z,61.67
2022-12-03T09:05:26.142Z,63.83
2022-12-03T09:07:52.887Z,57.70
2022-12-03T09:10:19.621Z,58.80
2022-12-03T09:12:46.382Z,53.90
2022-12-03T09:15:13.149Z,48.33
2022-12-03T09:17:39.887Z,53.30
2022-12-03T09:20:07.367Z,54.10
2022-12-03T09:22:34.146Z,53.90
2022-12-03T09:25:00.843Z,50.70
2022-12-03T09:27:27.535Z,43.07
2022-12-03T09:29:54.208Z,54.37
2022-12-03T09:32:21.025Z,42.90
2022-12-03T09:34:47.840Z,44.07
2022-12-03T09:37:14.567Z,47.40
2022-12-03T09:39:41.248Z,48.40
2022-12-03T09:42:08.456Z,48.53
2022-12-03T09:44:36.172Z,49.47
2022-12-03T09:47:04.841Z,56.10
2022-12-03T09:49:33.489Z,52.70
2022-12-03T09:52:03.088Z,48.10
2022-12-03T09:54:30.880Z,48.93
2022-12-03T09:57:00.825Z,51.60
2022-12-03T09:59:33.232Z,47.67
2022-12-03T10:02:00.639Z,51.00
2022-12-03T10:04:31.480Z,53.93
2022-12-03T10:06:59.039Z,55.23
2022-12-03T10:09:28.230Z,45.33
2022-12-03T10:11:57.265Z,53.47
2022-12-03T10:14:24.097Z,50.30
2022-12-03T10:16:50.987Z,51.97
2022-12-03T10:19:30.332Z,42.70
2022-12-03T10:21:57.399Z,49.83
2022-12-03T10:24:33.188Z,51.70
2022-12-03T10:27:02.074Z,49.63
2022-12-03T10:29:35.062Z,53.43
2022-12-03T10:32:08.217Z,57.67
2022-12-03T10:34:40.435Z,46.30
2022-12-03T10:37:14.692Z,51.30
2022-12-03T10:40:10.903Z,57.23
2022-12-03T10:42:39.981Z,53.87
2022-12-03T10:45:20.577Z,62.20
2022-12-03T10:48:27.393Z,56.07
2022-12-03T10:51:10.156Z,54.43
2022-12-03T10:53:39.655Z,48.43
2022-12-03T10:56:08.292Z,58.43
2022-12-03T10:58:37.780Z,59.50
2022-12-03T11:01:15.813Z,56.17
2022-12-03T11:03:42.720Z,63.03
2022-12-03T11:06:15.374Z,60.73
2022-12-03T11:08:54.752Z,55.53
2022-12-03T11:11:28.905Z,52.27
2022-12-03T11:13:58.152Z,53.60
2022-12-03T11:16:40.190Z,49.23
2022-12-03T11:19:12.914Z,45.57
2022-12-03T11:22:05.739Z,44.80
2022-12-03T11:24:41.540Z,42.10
2022-12-03T11:27:18.625Z,43.67
2022-12-03T11:30:01.820Z,41.43
2022-12-03T11:32:43.719Z,50.33
2022-12-03T11:35:23.665Z,44.57
2022-12-03T11:37:50.451Z,51.17
2022-12-03T11:40:17.236Z,60.47
2022-12-03T11:42:45.827Z,60.27
2022-12-03T11:45:27.860Z,58.37
2022-12-03T11:48:04.909Z,54.90
2022-12-03T11:50:40.376Z,55.60
2022-12-03T11:53:23.703Z,54.73
2022-12-03T11:56:08.905Z,60.30
2022-12-03T11:58:38.682Z,81.13
2022-12-03T12:01:07.747Z,77.37
2022-12-03T12:03:43.561Z,78.73
2022-12-03T12:06:13.307Z,80.63
2022-12-03T12:08:50.885Z,80.50
2022-12-03T12:11:26.846Z,72.83
2022-12-03T12:14:03.839Z,75.50
2022-12-03T12:16:55.483Z,78.93
2022-12-03T12:19:32.761Z,79.80
2022-12-03T12:22:28.636Z,72.63
2022-12-03T12:25:02.894Z,64.83
2022-12-03T12:27:31.241Z,68.27
2022-12-03T12:30:00.623Z,63.07
2022-12-03T12:32:34.123Z,64.97
2022-12-03T12:35:16.450Z,69.87
2022-12-03T12:38:12.687Z,59.93
2022-12-03T12:40:41.599Z,59.70
2022-12-03T12:43:23.452Z,56.37
2022-12-03T12:45:55.217Z,51.00
2022-12-03T12:48:23.402Z,48.97
2022-12-03T12:50:58.605Z,52.33
2022-12-03T12:53:31.709Z,46.53
2022-12-03T12:56:01.022Z,42.83
2022-12-03T12:58:32.334Z,44.77
2022-12-03T13:01:04.318Z,40.47
2022-12-03T13:03:34.907Z,44.27
2022-12-03T13:06:02.024Z,43.80
2022-12-03T13:08:39.000Z,40.13
2022-12-03T13:11:06.455Z,40.53
2022-12-03T13:13:43.629Z,40.30
2022-12-03T13:16:31.281Z,41.80
2022-12-03T13:19:02.040Z,39.47
2022-12-03T13:21:40.231Z,44.33
2022-12-03T13:24:35.224Z,37.67
2022-12-03T13:27:29.524Z,38.00
2022-12-03T13:30:01.132Z,43.17
2022-12-03T13:32:35.970Z,36.93
2022-12-03T13:35:09.840Z,38.30
2022-12-03T13:37:37.506Z,41.27
2022-12-03T13:40:36.272Z,37.73
2022-12-03T13:43:18.677Z,40.07
2022-12-03T13:45:47.285Z,45.00
2022-12-03T13:48:23.012Z,45.07
2022-12-03T13:50:51.562Z,46.20
2022-12-03T13:53:28.055Z,46.40
2022-12-03T13:56:04.163Z,45.77
2022-12-03T13:58:30.862Z,49.40
2022-12-03T14:00:57.546Z,52.47
2022-12-03T14:03:24.364Z,50.57
2022-12-03T14:05:51.039Z,56.87
2022-12-03T14:08:17.836Z,58.07
2022-12-03T14:10:44.700Z,59.67
2022-12-03T14:13:11.385Z,59.57
2022-12-03T14:15:38.114Z,63.80
2022-12-03T14:18:04.874Z,66.87
2022-12-03T14:20:32.101Z,64.20
2022-12-03T14:22:59.622Z,69.87
2022-12-03T14:25:27.038Z,70.83
2022-12-03T14:27:53.730Z,63.17
2022-12-03T14:30:20.558Z,73.40
2022-12-03T14:32:47.420Z,70.30
2022-12-03T14:35:14.285Z,73.00
2022-12-03T14:37:41.031Z,70.53
2022-12-03T14:40:09.064Z,71.83
2022-12-03T14:42:36.553Z,78.53
2022-12-03T14:45:03.717Z,80.63
2022-12-03T14:47:30.395Z,74.03
2022-12-03T14:49:57.289Z,81.73
2022-12-03T14:52:24.153Z,77.63
2022-12-03T14:54:50.864Z,74.23
2022-12-03T14:57:17.761Z,71.97
2022-12-03T14:59:46.986Z,67.77
2022-12-03T15:02:16.497Z,70.00
2022-12-03T15:04:43.216Z,74.80
2022-12-03T15:07:09.983Z,67.00
2022-12-03T15:09:36.687Z,69.77
2022-12-03T15:12:04.644Z,71.33
2022-12-03T15:14:31.393Z,74.30
2022-12-03T15:16:58.131Z,75.13
2022-12-03T15:19:24.964Z,76.33
2022-12-03T15:21:51.723Z,74.03
2022-12-03T15:24:18.501Z,81.17
2022-12-03T15:26:45.251Z,79.77
2022-12-03T15:29:12.153Z,74.10
2022-12-03T15:31:38.926Z,71.80
2022-12-03T15:34:05.677Z,75.40
2022-12-03T15:36:32.364Z,71.00
2022-12-03T15:38:59.109Z,68.87
2022-12-03T15:41:29.473Z,75.03
2022-12-03T15:43:58.534Z,79.47
2022-12-03T15:46:27.745Z,74.30
2022-12-03T15:48:55.577Z,72.50
2022-12-03T15:51:22.827Z,69.10
2022-12-03T15:53:49.739Z,69.80
2022-12-03T15:56:16.683Z,74.77
2022-12-03T15:58:43.487Z,74.33
2022-12-03T16:01:13.300Z,71.13
2022-12-03T16:03:40.187Z,68.53
2022-12-03T16:06:07.155Z,78.07
2022-12-03T16:08:33.856Z,71.00
2022-12-03T16:11:00.576Z,68.27
2022-12-03T16:13:27.279Z,70.53
2022-12-03T16:15:54.056Z,77.77
2022-12-03T16:18:20.802Z,76.57
2022-12-03T16:20:47.649Z,77.40
2022-12-03T16:23:14.441Z,80.03
2022-12-03T16:25:41.221Z,71.13
2022-12-03T16:28:08.235Z,68.57
2022-12-03T16:30:36.047Z,68.80
2022-12-03T16:33:02.848Z,73.97
2022-12-03T16:35:30.804Z,80.07
2022-12-03T16:37:57.575Z,81.10
2022-12-03T16:40:24.289Z,60.17
2022-12-03T16:42:50.964Z,73.10
2022-12-03T16:45:40.735Z,72.43
2022-12-03T16:48:07.424Z,75.93
2022-12-03T16:50:37.175Z,71.73
2022-12-03T16:53:04.130Z,71.57
2022-12-03T16:55:30.903Z,77.67
2022-12-03T16:57:57.603Z,71.63
2022-12-03T17:00:26.334Z,76.07
2022-12-03T17:02:53.080Z,75.13
2022-12-03T17:05:19.836Z,72.87
2022-12-03T17:07:46.575Z,69.90
2022-12-03T17:10:13.456Z,67.60
2022-12-03T17:13:07.676Z,65.93
2022-12-03T17:15:26.923Z,68.93
2022-12-03T17:17:53.681Z,69.07
2022-12-03T17:20:20.423Z,73.20
2022-12-03T17:22:47.217Z,71.50
2022-12-03T17:25:14.207Z,64.87
2022-12-03T17:27:45.181Z,71.07
2022-12-03T17:30:12.573Z,67.33
2022-12-03T17:32:39.420Z,69.10
2022-12-03T17:35:06.725Z,62.40
2022-12-03T17:37:33.543Z,62.07
2022-12-03T17:40:00.332Z,74.47
2022-12-03T17:42:27.085Z,68.33
2022-12-03T17:44:53.798Z,63.30
2022-12-03T17:47:20.538Z,61.83
2022-12-03T17:49:47.238Z,69.10
2022-12-03T17:52:14.047Z,63.27
2022-12-03T17:55:08.343Z,71.60
2022-12-03T17:57:27.605Z,70.87
2022-12-03T17:59:54.408Z,64.73
2022-12-03T18:02:21.399Z,62.70
2022-12-03T18:04:48.108Z,63.17
2022-12-03T18:07:14.849Z,61.63
2022-12-03T18:09:42.239Z,65.43
2022-12-03T18:12:08.957Z,63.83
2022-12-03T18:14:35.661Z,67.40
2022-12-03T18:17:02.355Z,63.50
2022-12-03T18:19:29.106Z,64.93
2022-12-03T18:21:55.884Z,63.40
2022-12-03T18:24:22.746Z,59.43
2022-12-03T18:26:50.453Z,58.90
2022-12-03T18:29:17.294Z,65.57
2022-12-03T18:31:44.201Z,64.80
2022-12-03T18:34:10.934Z,59.93
2022-12-03T18:36:37.987Z,61.00
2022-12-03T18:39:09.360Z,62.23
2022-12-03T18:41:36.780Z,59.37
2022-12-03T18:44:09.522Z,64.20
2022-12-03T18:46:53.822Z,56.63
2022-12-03T18:49:20.932Z,62.63
2022-12-03T18:51:48.526Z,59.57
2022-12-03T18:54:15.735Z,59.23
2022-12-03T18:56:42.483Z,62.00
2022-12-03T18:59:09.466Z,55.90
2022-12-03T19:01:36.610Z,55.83
2022-12-03T19:04:03.799Z,54.10
2022-12-03T19:06:33.435Z,59.93
2022-12-03T19:09:00.361Z,60.63
2022-12-03T19:11:27.498Z,56.90
2022-12-03T19:13:54.319Z,56.90
2022-12-03T19:16:23.374Z,56.50
2022-12-03T19:18:50.128Z,58.87
2022-12-03T19:21:18.318Z,60.67
2022-12-03T19:24:15.993Z,56.93
2022-12-03T19:26:32.198Z,57.23
2022-12-03T19:28:58.983Z,66.83
2022-12-03T19:31:26.108Z,64.07
2022-12-03T19:33:54.412Z,56.47
2022-12-03T19:36:29.822Z,58.90
2022-12-03T19:38:58.768Z,61.50
2022-12-03T19:41:27.444Z,63.73
2022-12-03T19:43:55.577Z,60.63
2022-12-03T19:46:24.175Z,59.47
2022-12-03T19:48:51.054Z,59.10
2022-12-03T19:51:33.998Z,61.80
2022-12-03T19:54:01.333Z,60.07
2022-12-03T19:56:30.428Z,64.53
2022-12-03T19:58:57.897Z,60.63
2022-12-03T20:01:27.969Z,55.30
2022-12-03T20:03:56.987Z,63.33
2022-12-03T20:06:26.624Z,57.03
2022-12-03T20:09:02.108Z,63.43
2022-12-03T20:11:32.387Z,66.00
2022-12-03T20:14:01.571Z,62.00
2022-12-03T20:16:29.341Z,60.40
2022-12-03T20:18:59.109Z,63.27
2022-12-03T20:21:26.807Z,59.47
2022-12-03T20:23:53.678Z,59.33
2022-12-03T20:26:22.000Z,65.23
2022-12-03T20:28:49.195Z,70.37
2022-12-03T20:31:18.967Z,66.80
2022-12-03T20:33:48.095Z,60.70
2022-12-03T20:36:17.119Z,59.90
2022-12-03T20:38:44.410Z,62.23
2022-12-03T20:41:14.212Z,61.03
2022-12-03T20:43:41.157Z,62.40
2022-12-03T20:46:08.955Z,63.93
2022-12-03T20:48:36.031Z,61.17
2022-12-03T20:51:04.955Z,64.73
2022-12-03T20:53:31.967Z,57.93
2022-12-03T20:55:59.926Z,66.20
2022-12-03T20:58:27.583Z,64.87
2022-12-03T21:00:54.768Z,64.60
2022-12-03T21:03:21.658Z,69.90
2022-12-03T21:05:48.390Z,65.37
2022-12-03T21:08:15.203Z,69.77
2022-12-03T21:10:45.989Z,67.60
2022-12-03T21:13:17.604Z,62.63
2022-12-03T21:15:47.928Z,68.10
2022-12-03T21:18:16.668Z,70.67
2022-12-03T21:20:47.536Z,69.47
2022-12-03T21:23:14.804Z,67.33
2022-12-03T21:25:41.648Z,65.87
2022-12-03T21:28:09.794Z,72.07
2022-12-03T21:30:39.990Z,70.57
2022-12-03T21:33:07.224Z,67.73
2022-12-03T21:35:37.453Z,65.37
2022-12-03T21:38:04.627Z,70.57
2022-12-03T21:40:31.491Z,62.77
2022-12-03T21:42:58.250Z,71.53
2022-12-03T21:45:25.099Z,67.80
2022-12-03T21:47:52.098Z,69.67
2022-12-03T21:50:19.173Z,77.27
2022-12-03T21:52:45.896Z,77.17
2022-12-03T21:55:12.646Z,65.60
2022-12-03T21:57:39.466Z,73.60
2022-12-03T22:00:08.464Z,74.17
2022-12-03T22:02:35.268Z,82.60
2022-12-03T22:05:01.954Z,69.27
2022-12-03T22:07:28.694Z,71.20
2022-12-03T22:09:55.703Z,68.37
2022-12-03T22:12:22.578Z,75.23
2022-12-03T22:14:49.299Z,72.20
2022-12-03T22:17:15.993Z,69.93
2022-12-03T22:19:42.787Z,72.87
2022-12-03T22:22:09.540Z,70.80
2022-12-03T22:24:36.221Z,77.67
2022-12-03T22:27:03.998Z,78.13
2022-12-03T22:29:31.103Z,71.37
2022-12-03T22:31:57.838Z,71.23
2022-12-03T22:34:24.581Z,65.63
2022-12-03T22:36:51.426Z,73.23
2022-12-03T22:39:18.194Z,73.57
2022-12-03T22:41:44.871Z,79.50
2022-12-03T22:44:11.632Z,71.27
2022-12-03T22:46:38.412Z,81.60
2022-12-03T22:49:07.308Z,79.50
2022-12-03T22:51:34.547Z,83.97
2022-12-03T22:54:02.018Z,90.20
2022-12-03T22:56:30.338Z,167.03
2022-12-03T22:58:57.055Z,137.93
2022-12-03T23:01:30.293Z,162.23
2022-12-03T23:03:57.379Z,117.37
2022-12-03T23:06:24.395Z,85.50
2022-12-03T23:08:52.031Z,76.00
2022-12-03T23:11:19.646Z,104.80
2022-12-03T23:13:47.051Z,94.33
2022-12-03T23:16:19.908Z,79.07
2022-12-03T23:18:46.730Z,76.53
2022-12-03T23:21:19.231Z,74.60
2022-12-03T23:23:48.415Z,82.07
2022-12-03T23:26:16.071Z,78.07
2022-12-03T23:28:45.419Z,71.87
2022-12-03T23:31:18.144Z,73.40
2022-12-03T23:33:45.264Z,78.23
2022-12-03T23:36:12.584Z,73.53
2022-12-03T23:38:40.145Z,76.93
2022-12-03T23:41:08.886Z,74.90
2022-12-03T23:43:35.714Z,78.73
2022-12-03T23:46:08.332Z,76.07
2022-12-03T23:48:36.251Z,74.90
2022-12-03T23:51:12.052Z,75.10
2022-12-03T23:53:39.778Z,75.67
2022-12-03T23:56:11.635Z,83.00
2022-12-03T23:58:38.683Z,74.30
